Time;durP1;ratioP1;P1;durP2;ratioP2;P2;SDS_P1;SDS_P2;PMS_P1;PMS_P2;Temp;Humidity;BMP_temperature;BMP_pressure;BME280_temperature;BME280_humidity;BME280_pressure;Samples;Min_cycle;Max_cycle;Signal;HPM_P1;HPM_P2
2021/09/10 00:00:11;;;;;;;14.77;11.98;;;21.60;65.00;;;;;;5030712;28;20516;-55
2021/09/10 00:02:38;;;;;;;13.68;11.75;;;21.60;65.10;;;;;;5028055;28;20022;-52
2021/09/10 00:05:06;;;;;;;14.77;12.25;;;21.60;65.70;;;;;;5031153;28;20489;-52
2021/09/10 00:07:33;;;;;;;14.63;12.13;;;21.50;65.70;;;;;;5029396;28;20030;-55
2021/09/10 00:09:59;;;;;;;13.82;11.63;;;21.50;65.70;;;;;;5031997;28;20029;-53
2021/09/10 00:12:26;;;;;;;12.77;11.50;;;21.50;65.60;;;;;;5031797;28;20037;-57
2021/09/10 00:14:52;;;;;;;13.77;12.48;;;21.50;65.80;;;;;;5032081;28;20052;-56
2021/09/10 00:17:19;;;;;;;15.18;12.65;;;21.50;66.30;;;;;;5030018;28;20033;-57
2021/09/10 00:19:45;;;;;;;13.35;11.98;;;21.50;65.60;;;;;;5029536;28;20378;-56
2021/09/10 00:22:12;;;;;;;16.40;13.30;;;21.40;66.30;;;;;;5029587;28;20045;-58
2021/09/10 00:24:38;;;;;;;18.00;12.70;;;21.40;66.90;;;;;;5029903;28;20033;-57
2021/09/10 00:27:05;;;;;;;13.68;11.52;;;21.40;66.90;;;;;;5030658;28;20029;-55
2021/09/10 00:29:31;;;;;;;13.77;12.55;;;21.30;67.20;;;;;;5030070;28;20401;-58
2021/09/10 00:32:08;;;;;;;14.05;12.57;;;21.30;67.20;;;;;;5030626;28;20036;-53
2021/09/10 00:34:35;;;;;;;14.20;12.40;;;21.30;66.90;;;;;;5030778;28;20041;-56
2021/09/10 00:37:01;;;;;;;15.07;13.52;;;21.30;67.70;;;;;;5031809;28;20042;-56
2021/09/10 00:39:28;;;;;;;13.85;12.40;;;21.30;67.90;;;;;;5030957;28;20053;-54
2021/09/10 00:41:54;;;;;;;14.00;11.75;;;21.30;67.90;;;;;;5031086;28;20394;-56
2021/09/10 00:44:20;;;;;;;12.88;11.57;;;21.30;68.00;;;;;;5031202;28;20379;-54
2021/09/10 00:46:47;;;;;;;13.23;11.93;;;21.30;67.80;;;;;;5029682;28;20037;-57
2021/09/10 00:49:14;;;;;;;16.70;11.93;;;21.30;67.80;;;;;;5029184;28;20046;-52
2021/09/10 00:51:41;;;;;;;13.07;11.80;;;21.30;67.60;;;;;;5029767;28;20030;-52
2021/09/10 00:54:07;;;;;;;14.32;12.90;;;21.30;67.70;;;;;;5029828;28;20053;-54
2021/09/10 00:56:34;;;;;;;12.93;11.65;;;21.30;67.40;;;;;;5033014;28;20049;-50
2021/09/10 00:59:03;;;;;;;13.32;12.13;;;21.30;66.80;;;;;;5033814;28;20038;-52
2021/09/10 01:01:30;;;;;;;14.48;13.07;;;21.30;66.30;;;;;;5034432;28;20454;-55
2021/09/10 01:03:57;;;;;;;14.02;12.55;;;21.30;65.70;;;;;;5035040;28;20056;-55
2021/09/10 01:06:24;;;;;;;12.75;11.40;;;21.30;65.30;;;;;;5035293;28;20037;-52
2021/09/10 01:08:52;;;;;;;13.57;12.00;;;21.30;65.50;;;;;;5035095;28;20072;-54
2021/09/10 01:11:19;;;;;;;14.00;12.70;;;21.30;66.50;;;;;;5035014;28;20033;-55
2021/09/10 01:13:47;;;;;;;15.05;12.05;;;21.30;66.40;;;;;;5035168;28;20044;-55
2021/09/10 01:16:14;;;;;;;14.07;12.45;;;21.30;66.40;;;;;;5034935;28;20041;-54
2021/09/10 01:18:59;;;;;;;14.32;12.82;;;21.20;66.70;;;;;;5034610;28;20054;-55
2021/09/10 01:21:25;;;;;;;14.27;12.13;;;21.20;66.80;;;;;;5033899;28;20050;-53
2021/09/10 01:23:51;;;;;;;12.65;11.40;;;21.20;67.00;;;;;;5035045;28;20057;-56
2021/09/10 01:26:19;;;;;;;13.73;12.27;;;21.20;67.00;;;;;;5034961;28;20044;-55
2021/09/10 01:28:45;;;;;;;14.48;12.98;;;21.20;66.50;;;;;;5034788;28;20037;-56
2021/09/10 01:31:12;;;;;;;13.77;12.25;;;21.20;66.40;;;;;;5035134;28;20022;-55
2021/09/10 01:33:38;;;;;;;14.02;12.30;;;21.20;66.20;;;;;;5034523;28;20052;-53
2021/09/10 01:36:08;;;;;;;13.73;12.43;;;21.10;66.10;;;;;;5035233;28;20048;-54
2021/09/10 01:38:34;;;;;;;12.98;11.65;;;21.10;66.00;;;;;;5034388;28;20053;-55
2021/09/10 01:41:01;;;;;;;14.77;13.35;;;21.10;66.10;;;;;;5035831;28;20053;-55
2021/09/10 01:43:28;;;;;;;14.18;12.20;;;21.10;66.10;;;;;;5034545;28;20390;-51
2021/09/10 01:45:54;;;;;;;13.32;12.13;;;21.10;66.20;;;;;;5032946;28;20034;-53
2021/09/10 01:48:21;;;;;;;13.90;12.40;;;21.10;66.50;;;;;;5033904;28;20048;-55
2021/09/10 01:50:48;;;;;;;13.75;12.43;;;21.10;66.90;;;;;;5033352;28;20382;-55
2021/09/10 01:53:14;;;;;;;14.23;12.52;;;21.00;66.90;;;;;;5034008;28;20054;-55
2021/09/10 01:55:41;;;;;;;14.15;12.00;;;21.00;67.10;;;;;;5034884;28;20042;-53
2021/09/10 01:58:07;;;;;;;14.45;12.95;;;21.10;67.30;;;;;;5034142;28;20466;-57
2021/09/10 02:00:34;;;;;;;14.77;13.35;;;21.00;67.10;;;;;;5032536;28;20041;-53
2021/09/10 02:03:01;;;;;;;13.25;11.85;;;21.00;67.00;;;;;;5034258;28;20053;-55
2021/09/10 02:05:28;;;;;;;14.85;13.18;;;21.10;67.30;;;;;;5033831;28;20049;-52
2021/09/10 02:07:55;;;;;;;14.68;13.20;;;21.10;67.90;;;;;;5033366;28;20045;-54
2021/09/10 02:10:21;;;;;;;13.70;12.27;;;21.00;67.20;;;;;;5033616;28;20469;-54
2021/09/10 02:12:48;;;;;;;14.05;12.20;;;21.00;67.30;;;;;;5034036;28;20046;-50
2021/09/10 02:15:14;;;;;;;14.52;13.05;;;21.00;67.30;;;;;;5034907;28;20041;-53
2021/09/10 02:17:42;;;;;;;14.32;12.70;;;21.00;67.60;;;;;;5034083;28;20056;-56
2021/09/10 02:20:09;;;;;;;14.48;11.77;;;21.00;68.00;;;;;;5033317;28;20085;-55
2021/09/10 02:22:36;;;;;;;15.02;12.98;;;21.00;68.40;;;;;;5033848;28;20406;-54
2021/09/10 02:25:03;;;;;;;13.40;12.00;;;21.00;68.30;;;;;;5033291;28;20033;-54
2021/09/10 02:27:29;;;;;;;13.52;12.23;;;20.90;68.10;;;;;;5034246;28;20919;-51
2021/09/10 02:29:55;;;;;;;13.55;12.20;;;21.00;68.40;;;;;;5034663;28;20105;-54
2021/09/10 02:32:22;;;;;;;14.43;13.10;;;20.90;68.40;;;;;;5033608;28;20037;-54
2021/09/10 02:34:48;;;;;;;13.50;12.10;;;20.90;69.20;;;;;;5033705;28;20032;-53
2021/09/10 02:37:15;;;;;;;14.73;11.93;;;20.90;68.40;;;;;;5033354;28;20037;-54
2021/09/10 02:39:42;;;;;;;13.27;11.85;;;20.90;68.30;;;;;;5034769;28;20482;-51
2021/09/10 02:42:08;;;;;;;13.93;12.50;;;20.90;68.40;;;;;;5033108;28;20045;-54
2021/09/10 02:44:35;;;;;;;13.45;12.15;;;20.90;68.00;;;;;;5033627;28;20029;-52
2021/09/10 02:47:01;;;;;;;14.73;12.68;;;20.90;67.60;;;;;;5033117;28;20053;-54
2021/09/10 02:49:28;;;;;;;13.23;11.93;;;20.90;67.10;;;;;;5033306;28;20064;-55
2021/09/10 02:51:54;;;;;;;13.27;11.93;;;20.90;67.10;;;;;;5033362;28;20500;-51
2021/09/10 02:54:21;;;;;;;13.32;11.98;;;20.90;67.10;;;;;;5033275;28;20053;-54
2021/09/10 02:56:48;;;;;;;14.00;12.55;;;20.90;67.20;;;;;;5033228;28;20037;-53
2021/09/10 02:59:15;;;;;;;12.68;11.45;;;20.90;67.40;;;;;;5033395;28;20053;-52
2021/09/10 03:01:44;;;;;;;12.90;11.60;;;20.90;67.50;;;;;;5033387;28;20040;-55
2021/09/10 03:04:11;;;;;;;13.48;12.18;;;20.90;67.60;;;;;;5032926;28;20045;-55
2021/09/10 03:06:38;;;;;;;14.45;12.90;;;20.90;67.60;;;;;;5033262;28;20049;-53
2021/09/10 03:09:04;;;;;;;13.85;12.43;;;20.90;67.70;;;;;;5031094;28;20046;-55
2021/09/10 03:11:31;;;;;;;12.65;11.55;;;20.90;67.70;;;;;;5032797;28;20045;-50
2021/09/10 03:13:57;;;;;;;13.35;11.95;;;20.90;67.60;;;;;;5032161;28;20489;-55
2021/09/10 03:16:24;;;;;;;12.95;11.80;;;20.90;67.90;;;;;;5031872;28;20052;-54
2021/09/10 03:18:50;;;;;;;17.08;11.75;;;20.80;68.00;;;;;;5031492;28;20049;-53
2021/09/10 03:21:17;;;;;;;13.02;11.60;;;20.80;67.80;;;;;;5032696;28;20036;-55
2021/09/10 03:23:43;;;;;;;12.82;11.48;;;20.90;68.00;;;;;;5032931;28;20413;-56
2021/09/10 03:26:09;;;;;;;13.73;11.43;;;20.90;68.30;;;;;;5032988;28;20056;-54
2021/09/10 03:28:36;;;;;;;13.85;12.27;;;20.80;68.40;;;;;;5032522;28;20033;-52
2021/09/10 03:31:02;;;;;;;15.23;12.07;;;20.80;69.00;;;;;;5033050;28;20358;-55
2021/09/10 03:33:29;;;;;;;13.25;11.70;;;20.80;68.90;;;;;;5032832;28;20048;-54
2021/09/10 03:35:55;;;;;;;13.23;11.82;;;20.80;68.80;;;;;;5032591;28;20049;-56
2021/09/10 03:38:22;;;;;;;12.25;11.15;;;20.80;68.80;;;;;;5032275;28;20072;-54
2021/09/10 03:40:48;;;;;;;12.50;11.30;;;20.80;68.80;;;;;;5032522;28;20033;-56
2021/09/10 03:43:15;;;;;;;12.30;11.18;;;20.80;68.90;;;;;;5032762;28;20049;-57
2021/09/10 03:45:41;;;;;;;13.55;12.18;;;20.80;68.80;;;;;;5032600;28;20386;-55
2021/09/10 03:48:08;;;;;;;14.23;12.10;;;20.80;69.20;;;;;;5032710;28;20482;-55
2021/09/10 03:50:34;;;;;;;14.38;12.00;;;20.80;69.50;;;;;;5031999;28;20042;-55
2021/09/10 03:53:01;;;;;;;15.13;12.43;;;20.80;69.30;;;;;;5032272;28;20052;-56
2021/09/10 03:55:27;;;;;;;13.20;11.38;;;20.80;69.30;;;;;;5030410;28;20080;-56
2021/09/10 03:57:54;;;;;;;13.00;11.80;;;20.80;69.40;;;;;;5032582;28;20042;-53
2021/09/10 04:00:20;;;;;;;13.13;11.73;;;20.80;69.40;;;;;;5031844;28;20053;-54
2021/09/10 04:02:50;;;;;;;14.15;10.93;;;20.80;69.30;;;;;;5032116;28;20418;-54
2021/09/10 04:05:17;;;;;;;15.30;11.38;;;20.80;68.90;;;;;;5063917;28;20513;-58
2021/09/10 04:07:43;;;;;;;12.60;11.40;;;20.80;68.60;;;;;;5032040;28;20490;-55
2021/09/10 04:10:10;;;;;;;11.35;10.15;;;20.80;68.30;;;;;;5032012;28;20056;-55
2021/09/10 04:12:38;;;;;;;13.40;11.32;;;20.80;67.90;;;;;;5031998;28;20040;-56
2021/09/10 04:15:05;;;;;;;13.65;10.85;;;20.80;68.30;;;;;;5032477;28;20042;-56
2021/09/10 04:17:31;;;;;;;13.77;12.38;;;20.90;68.50;;;;;;5031644;28;20048;-55
2021/09/10 04:19:58;;;;;;;13.20;11.18;;;20.80;69.40;;;;;;5032523;28;20479;-52
2021/09/10 04:22:24;;;;;;;15.23;12.30;;;20.80;68.30;;;;;;5031910;28;20068;-54
2021/09/10 04:24:51;;;;;;;13.05;11.73;;;20.80;68.90;;;;;;5032132;28;20045;-56
2021/09/10 04:27:17;;;;;;;13.68;12.15;;;20.80;69.50;;;;;;5032265;28;20041;-54
2021/09/10 04:29:44;;;;;;;15.50;12.23;;;20.80;69.70;;;;;;5032451;28;20045;-55
2021/09/10 04:32:10;;;;;;;12.98;11.77;;;20.80;69.90;;;;;;5035741;28;20486;-54
2021/09/10 04:34:37;;;;;;;13.65;12.25;;;20.80;70.00;;;;;;5035830;28;20049;-56
2021/09/10 04:37:06;;;;;;;15.05;11.90;;;20.80;70.00;;;;;;5036157;28;20377;-54
2021/09/10 04:39:33;;;;;;;13.35;11.95;;;20.80;68.90;;;;;;5035651;28;20046;-56
2021/09/10 04:41:59;;;;;;;14.05;12.15;;;20.80;67.80;;;;;;5035627;28;20050;-55
2021/09/10 04:44:26;;;;;;;13.70;11.13;;;20.80;67.80;;;;;;5036841;28;20044;-56
2021/09/10 04:46:52;;;;;;;12.88;11.65;;;20.80;67.60;;;;;;5035355;28;20052;-56
2021/09/10 04:49:19;;;;;;;14.90;11.55;;;20.80;68.00;;;;;;5035429;28;20048;-54
2021/09/10 04:51:45;;;;;;;13.75;11.30;;;20.80;66.90;;;;;;5036002;28;20466;-54
2021/09/10 04:54:15;;;;;;;14.20;12.00;;;20.80;66.70;;;;;;5035122;28;20037;-54
2021/09/10 04:56:45;;;;;;;14.32;12.18;;;20.80;66.80;;;;;;5035783;28;20045;-54
2021/09/10 04:59:13;;;;;;;14.20;12.52;;;20.80;67.60;;;;;;5035054;28;20059;-56
2021/09/10 05:01:40;;;;;;;12.73;11.48;;;20.80;68.20;;;;;;5035198;28;20057;-56
2021/09/10 05:04:06;;;;;;;12.85;11.30;;;20.80;68.20;;;;;;5034756;28;20045;-56
2021/09/10 05:06:33;;;;;;;13.32;11.60;;;20.80;68.00;;;;;;5035372;28;20378;-55
2021/09/10 05:08:59;;;;;;;14.20;12.80;;;20.70;67.60;;;;;;5035286;28;20033;-53
2021/09/10 05:11:26;;;;;;;16.33;12.38;;;20.70;67.70;;;;;;5035360;28;20509;-56
2021/09/10 05:13:52;;;;;;;15.50;13.82;;;20.70;68.00;;;;;;5035643;28;20401;-56
2021/09/10 05:16:20;;;;;;;15.82;11.85;;;20.70;68.40;;;;;;5034778;28;20045;-53
2021/09/10 05:18:46;;;;;;;15.27;12.95;;;20.70;68.60;;;;;;5034607;28;20060;-56
2021/09/10 05:21:13;;;;;;;15.18;12.52;;;20.70;68.70;;;;;;5035696;28;20041;-55
2021/09/10 05:23:39;;;;;;;13.43;11.40;;;20.80;68.80;;;;;;5035161;28;20045;-54
2021/09/10 05:26:06;;;;;;;14.60;12.07;;;20.80;69.60;;;;;;5034632;28;20045;-54
2021/09/10 05:28:32;;;;;;;17.35;13.48;;;20.70;70.40;;;;;;5034867;28;20025;-56
2021/09/10 05:30:59;;;;;;;15.35;12.23;;;20.70;70.70;;;;;;5035392;28;20037;-55
2021/09/10 05:33:25;;;;;;;18.15;12.70;;;20.70;70.70;;;;;;5034874;28;20041;-53
2021/09/10 05:35:52;;;;;;;17.00;13.60;;;20.70;70.40;;;;;;5034746;28;20060;-52
2021/09/10 05:38:18;;;;;;;17.25;13.93;;;20.70;70.50;;;;;;5035467;28;20103;-53
2021/09/10 05:40:45;;;;;;;18.20;13.90;;;20.70;70.60;;;;;;5034691;28;20049;-57
2021/09/10 05:43:11;;;;;;;17.88;14.73;;;20.70;70.60;;;;;;5033142;28;20046;-55
2021/09/10 05:45:38;;;;;;;13.90;11.95;;;20.70;70.70;;;;;;5034663;28;20045;-56
2021/09/10 05:48:05;;;;;;;16.98;11.85;;;20.70;69.90;;;;;;5034884;28;20049;-55
2021/09/10 05:50:31;;;;;;;15.10;12.57;;;20.70;68.70;;;;;;5034309;28;20046;-56
2021/09/10 05:53:00;;;;;;;14.10;12.60;;;20.80;66.50;;;;;;5034416;28;20045;-56
2021/09/10 05:55:27;;;;;;;15.70;12.18;;;20.80;65.10;;;;;;5034680;28;20038;-53
2021/09/10 05:57:53;;;;;;;14.63;13.05;;;20.80;64.80;;;;;;5034316;28;20405;-56
2021/09/10 06:00:20;;;;;;;13.82;11.45;;;20.80;64.60;;;;;;5034282;28;20041;-56
2021/09/10 06:02:46;;;;;;;12.95;11.52;;;20.90;64.80;;;;;;5034109;28;20398;-54
2021/09/10 06:05:13;;;;;;;16.98;13.68;;;20.90;65.30;;;;;;5034423;28;20052;-54
2021/09/10 06:07:39;;;;;;;13.57;12.27;;;20.90;64.50;;;;;;5033711;28;20050;-52
2021/09/10 06:10:06;;;;;;;14.05;12.05;;;20.90;64.60;;;;;;5034150;28;20418;-54
2021/09/10 06:12:32;;;;;;;14.52;11.90;;;20.90;64.80;;;;;;5034232;28;20049;-55
2021/09/10 06:14:59;;;;;;;14.85;12.73;;;20.90;65.40;;;;;;5033634;28;20038;-54
2021/09/10 06:17:25;;;;;;;14.50;12.43;;;21.00;64.70;;;;;;5034149;28;20034;-56
2021/09/10 06:19:52;;;;;;;13.75;12.35;;;21.00;64.90;;;;;;5033537;28;20045;-55
2021/09/10 06:22:18;;;;;;;13.52;12.13;;;21.00;65.00;;;;;;5034398;28;20049;-56
2021/09/10 06:24:45;;;;;;;14.05;12.55;;;21.00;65.20;;;;;;5031832;28;20429;-52
2021/09/10 06:27:11;;;;;;;14.80;12.52;;;21.00;65.40;;;;;;5032782;28;20049;-52
2021/09/10 06:29:38;;;;;;;14.23;12.55;;;21.00;65.60;;;;;;5033938;28;20041;-53
2021/09/10 06:32:05;;;;;;;16.20;12.90;;;21.00;65.10;;;;;;5033804;28;20037;-55
2021/09/10 06:34:31;;;;;;;13.00;11.75;;;21.00;65.20;;;;;;5033383;28;20045;-53
2021/09/10 06:36:57;;;;;;;13.65;12.27;;;21.10;65.50;;;;;;5033511;28;20050;-55
2021/09/10 06:39:24;;;;;;;12.95;11.70;;;21.10;65.60;;;;;;5032992;28;20488;-54
2021/09/10 06:41:50;;;;;;;14.50;13.00;;;21.10;65.90;;;;;;5033333;28;20052;-54
2021/09/10 06:44:17;;;;;;;13.55;11.73;;;21.10;65.90;;;;;;5031800;28;20045;-51
2021/09/10 06:46:44;;;;;;;17.75;12.48;;;21.20;65.70;;;;;;5033167;28;20413;-55
2021/09/10 06:49:10;;;;;;;17.67;13.35;;;21.20;65.40;;;;;;5033291;28;20052;-54
2021/09/10 06:51:36;;;;;;;16.52;13.07;;;21.20;65.10;;;;;;5033237;28;20045;-55
2021/09/10 06:54:03;;;;;;;15.98;13.05;;;21.30;65.20;;;;;;5033051;28;20045;-57
2021/09/10 06:56:29;;;;;;;15.98;14.27;;;21.30;65.10;;;;;;5033237;28;20041;-57
2021/09/10 06:58:56;;;;;;;17.85;14.02;;;21.30;65.00;;;;;;5034099;28;20478;-54
2021/09/10 07:01:22;;;;;;;15.23;12.82;;;21.30;65.00;;;;;;5033073;28;20049;-53
2021/09/10 07:03:49;;;;;;;15.32;13.82;;;21.30;65.60;;;;;;5033125;28;20057;-54
2021/09/10 07:06:15;;;;;;;13.95;12.32;;;21.30;64.70;;;;;;5033716;28;20408;-54
2021/09/10 07:08:42;;;;;;;14.90;13.27;;;21.40;64.80;;;;;;5032758;28;20055;-55
2021/09/10 07:11:09;;;;;;;14.85;13.27;;;21.40;64.70;;;;;;5032944;28;20045;-56
2021/09/10 07:13:36;;;;;;;14.60;13.13;;;21.50;64.40;;;;;;5032838;28;20041;-55
2021/09/10 07:16:02;;;;;;;13.63;12.30;;;21.50;64.20;;;;;;5032741;28;20501;-53
2021/09/10 07:18:29;;;;;;;14.23;12.55;;;21.60;64.50;;;;;;5031474;28;20049;-53
2021/09/10 07:20:56;;;;;;;15.68;13.25;;;21.70;64.20;;;;;;5032834;28;20060;-54
2021/09/10 07:23:22;;;;;;;15.82;14.05;;;21.80;64.00;;;;;;5032663;28;20054;-53
2021/09/10 07:25:49;;;;;;;16.27;13.02;;;21.90;63.00;;;;;;5032625;28;20056;-51
2021/09/10 07:28:15;;;;;;;14.80;13.40;;;21.90;62.80;;;;;;5032481;28;20385;-55
2021/09/10 07:30:41;;;;;;;16.15;14.48;;;21.90;62.70;;;;;;5032909;28;20532;-51
2021/09/10 07:33:08;;;;;;;20.10;14.55;;;21.90;62.60;;;;;;5032278;28;20390;-51
2021/09/10 07:35:34;;;;;;;14.00;12.50;;;22.00;62.50;;;;;;5033110;28;20045;-54
2021/09/10 07:38:01;;;;;;;14.13;12.63;;;22.10;62.00;;;;;;5032006;28;20045;-55
2021/09/10 07:40:27;;;;;;;23.65;13.93;;;22.20;60.90;;;;;;5033005;28;20052;-53
2021/09/10 07:42:54;;;;;;;16.25;14.50;;;22.30;61.10;;;;;;5032127;28;20044;-55
2021/09/10 07:45:21;;;;;;;15.82;14.18;;;22.30;60.60;;;;;;5032629;28;20528;-51
2021/09/10 07:47:48;;;;;;;15.07;13.50;;;22.20;61.10;;;;;;5032104;28;20029;-54
2021/09/10 07:50:14;;;;;;;17.75;15.68;;;22.20;61.50;;;;;;5032003;28;20040;-56
2021/09/10 07:52:41;;;;;;;22.02;16.63;;;22.20;61.70;;;;;;5030796;28;20406;-49
2021/09/10 07:55:08;;;;;;;26.33;21.83;;;22.30;61.90;;;;;;5032682;28;20053;-55
2021/09/10 07:57:34;;;;;;;20.85;18.73;;;22.30;62.10;;;;;;5031842;28;20025;-55
2021/09/10 08:00:01;;;;;;;23.33;20.13;;;22.30;62.30;;;;;;5032173;28;20370;-51
2021/09/10 08:02:31;;;;;;;23.52;18.48;;;22.30;62.40;;;;;;5032472;28;20497;-54
2021/09/10 08:04:59;;;;;;;21.70;17.33;;;22.40;62.30;;;;;;5032741;28;20382;-54
2021/09/10 08:07:26;;;;;;;17.25;15.52;;;22.50;62.20;;;;;;5068580;28;20033;-53
2021/09/10 08:09:52;;;;;;;18.00;16.20;;;22.60;61.00;;;;;;5036288;28;20057;-51
2021/09/10 08:12:19;;;;;;;20.58;16.42;;;22.60;60.20;;;;;;5036906;28;20398;-54
2021/09/10 08:14:45;;;;;;;17.23;15.48;;;22.60;60.30;;;;;;5035853;28;20040;-50
2021/09/10 08:17:11;;;;;;;19.40;15.90;;;22.70;60.60;;;;;;5035773;28;20033;-51
2021/09/10 08:19:38;;;;;;;16.83;14.75;;;22.70;60.80;;;;;;5035240;28;20045;-50
2021/09/10 08:22:04;;;;;;;17.45;15.43;;;22.70;61.20;;;;;;5034796;28;20025;-54
2021/09/10 08:24:32;;;;;;;15.27;13.85;;;22.80;61.60;;;;;;5035703;28;20409;-52
2021/09/10 08:26:59;;;;;;;16.13;14.63;;;22.90;62.10;;;;;;5036434;28;20042;-51
2021/09/10 08:29:25;;;;;;;15.18;13.68;;;22.90;59.70;;;;;;5036118;28;20381;-52
2021/09/10 08:31:52;;;;;;;18.45;15.88;;;22.90;59.10;;;;;;5035594;28;20506;-50
2021/09/10 08:34:18;;;;;;;17.52;14.50;;;22.90;59.60;;;;;;5037343;28;20049;-49
2021/09/10 08:36:45;;;;;;;15.48;13.98;;;22.90;59.60;;;;;;5035479;28;20061;-52
2021/09/10 08:39:11;;;;;;;14.85;13.35;;;23.00;59.50;;;;;;5036133;28;20367;-53
2021/09/10 08:41:39;;;;;;;13.32;12.02;;;23.00;58.30;;;;;;5035674;28;20050;-51
2021/09/10 08:44:06;;;;;;;16.38;14.15;;;23.00;58.40;;;;;;5036485;28;20496;-56
2021/09/10 08:46:37;;;;;;;17.38;13.95;;;23.10;57.30;;;;;;5035396;28;20064;-52
2021/09/10 08:49:05;;;;;;;16.98;13.93;;;23.20;57.90;;;;;;5033606;28;20038;-54
2021/09/10 08:51:32;;;;;;;20.02;15.98;;;23.30;58.40;;;;;;5036019;28;20395;-52
2021/09/10 08:54:00;;;;;;;16.38;14.38;;;23.30;58.30;;;;;;5035867;28;20351;-50
2021/09/10 08:56:26;;;;;;;17.90;13.70;;;23.40;57.90;;;;;;5035439;28;20389;-52
2021/09/10 08:59:17;;;;;;;20.15;17.52;;;23.40;57.30;;;;;;5035434;28;20042;-51
2021/09/10 09:01:57;;;;;;;18.08;15.07;;;23.40;57.10;;;;;;5031989;28;20506;-51
2021/09/10 09:04:31;;;;;;;17.60;15.77;;;23.40;56.90;;;;;;5035558;28;20030;-54
2021/09/10 09:06:58;;;;;;;15.25;13.18;;;23.40;56.90;;;;;;5034947;28;20064;-52
2021/09/10 09:09:42;;;;;;;14.10;12.63;;;23.40;56.60;;;;;;5035441;28;20040;-53
2021/09/10 09:12:17;;;;;;;15.73;13.32;;;23.50;55.10;;;;;;5034908;28;20060;-53
2021/09/10 09:14:49;;;;;;;13.05;11.32;;;23.50;54.10;;;;;;5035453;28;20038;-53
2021/09/10 09:17:31;;;;;;;13.57;11.90;;;23.60;54.00;;;;;;5035281;28;20050;-54
2021/09/10 09:20:29;;;;;;;15.75;12.25;;;23.70;53.80;;;;;;5034537;28;20057;-52
2021/09/10 09:23:08;;;;;;;13.73;12.30;;;23.80;54.00;;;;;;5022987;28;20042;-53
2021/09/10 09:25:44;;;;;;;13.55;12.18;;;23.90;54.60;;;;;;5035536;28;20045;-53
2021/09/10 09:28:31;;;;;;;15.20;12.75;;;23.90;53.50;;;;;;5034746;28;20041;-53
2021/09/10 09:30:59;;;;;;;18.25;12.68;;;23.90;53.60;;;;;;5035407;28;20402;-53
2021/09/10 09:33:28;;;;;;;16.73;11.65;;;24.00;53.20;;;;;;5035034;28;20049;-54
2021/09/10 09:35:59;;;;;;;12.70;11.45;;;24.00;52.80;;;;;;5034749;28;20038;-47
2021/09/10 09:38:29;;;;;;;16.85;13.18;;;24.10;53.20;;;;;;5034415;28;20045;-53
2021/09/10 09:41:02;;;;;;;12.73;11.40;;;24.00;51.50;;;;;;5034857;28;20060;-49
2021/09/10 09:43:31;;;;;;;12.93;11.63;;;24.00;51.00;;;;;;5034661;28;20041;-52
2021/09/10 09:45:59;;;;;;;12.63;11.23;;;24.00;51.60;;;;;;5035134;28;20049;-52
2021/09/10 09:48:27;;;;;;;13.13;11.82;;;24.10;52.10;;;;;;5034131;28;20041;-56
2021/09/10 09:50:56;;;;;;;14.15;11.60;;;24.10;52.60;;;;;;5034731;28;20053;-49
2021/09/10 09:56:08;;;;;;;14.80;10.52;;;24.10;49.80;;;;;;5034332;28;20056;-53
2021/09/10 09:58:37;;;;;;;13.65;12.25;;;24.10;50.00;;;;;;5034752;28;20520;-52
2021/09/10 10:01:04;;;;;;;16.13;12.30;;;24.20;50.30;;;;;;5034334;28;20076;-52
2021/09/10 10:03:31;;;;;;;12.93;11.60;;;24.30;50.80;;;;;;5032768;28;20082;-51
2021/09/10 10:06:01;;;;;;;12.88;10.82;;;24.30;50.60;;;;;;5065604;28;20406;-50
2021/09/10 10:08:33;;;;;;;11.25;10.05;;;24.30;49.40;;;;;;5034462;28;20046;-53
2021/09/10 10:11:08;;;;;;;12.40;10.25;;;24.30;50.60;;;;;;5034871;28;20042;-51
2021/09/10 10:13:35;;;;;;;12.57;10.90;;;24.40;49.90;;;;;;5034484;28;20025;-53
2021/09/10 10:16:02;;;;;;;15.55;12.45;;;24.40;50.20;;;;;;5033849;28;20057;-53
2021/09/10 10:18:46;;;;;;;12.45;11.00;;;24.40;49.90;;;;;;5033599;28;20025;-53
2021/09/10 10:21:14;;;;;;;14.82;11.50;;;24.40;50.30;;;;;;5033376;28;20068;-53
2021/09/10 10:23:46;;;;;;;15.63;11.15;;;24.50;50.60;;;;;;5034263;28;20394;-51
2021/09/10 10:26:15;;;;;;;14.07;11.30;;;24.60;49.90;;;;;;5033736;28;20401;-54
2021/09/10 10:28:51;;;;;;;16.08;11.27;;;24.70;49.50;;;;;;5033241;28;20080;-50
2021/09/10 10:31:57;;;;;;;13.80;12.40;;;24.60;49.50;;;;;;5033792;28;20052;-53
2021/09/10 10:34:35;;;;;;;12.30;10.95;;;24.70;49.60;;;;;;5041606;28;20374;-51
2021/09/10 10:37:22;;;;;;;12.95;10.65;;;24.80;49.30;;;;;;5053209;28;20037;-53
2021/09/10 10:40:27;;;;;;;17.05;12.25;;;24.80;49.20;;;;;;5053429;28;20506;-54
2021/09/10 10:42:54;;;;;;;12.68;10.82;;;24.90;49.10;;;;;;5052925;28;20043;-50
2021/09/10 10:45:41;;;;;;;13.30;9.75;;;25.00;48.60;;;;;;5053252;28;20029;-52
2021/09/10 10:48:29;;;;;;;14.35;11.48;;;25.10;49.00;;;;;;5052864;28;20389;-52
2021/09/10 10:50:58;;;;;;;12.52;11.23;;;25.10;48.00;;;;;;5053351;28;20036;-52
2021/09/10 10:53:24;;;;;;;14.90;10.70;;;25.10;48.00;;;;;;5052673;28;20052;-52
2021/09/10 10:55:51;;;;;;;12.07;10.90;;;25.10;47.70;;;;;;5053283;28;20032;-54
2021/09/10 10:58:23;;;;;;;13.23;11.35;;;25.20;48.10;;;;;;5052652;28;20029;-51
2021/09/10 11:00:58;;;;;;;14.32;11.82;;;25.20;48.10;;;;;;5039551;28;20374;-53
2021/09/10 11:03:25;;;;;;;14.90;11.82;;;25.30;47.30;;;;;;5032342;28;20049;-51
2021/09/10 11:05:57;;;;;;;15.75;10.68;;;25.20;47.10;;;;;;5032732;28;20518;-52
2021/09/10 11:08:42;;;;;;;15.05;10.70;;;25.20;47.90;;;;;;5032567;28;20033;-51
2021/09/10 11:11:10;;;;;;;14.77;11.48;;;25.30;47.60;;;;;;5032667;28;20049;-53
2021/09/10 11:13:41;;;;;;;17.75;11.88;;;25.30;47.20;;;;;;5032609;28;20029;-52
2021/09/10 11:16:09;;;;;;;13.65;10.13;;;25.30;46.60;;;;;;5032638;28;20029;-53
2021/09/10 11:18:37;;;;;;;14.48;12.20;;;25.30;46.50;;;;;;5032080;28;20503;-54
2021/09/10 11:21:06;;;;;;;13.52;10.82;;;25.40;46.70;;;;;;5047418;28;20033;-52
2021/09/10 11:23:37;;;;;;;12.45;10.45;;;25.50;46.50;;;;;;5050889;28;20053;-54
2021/09/10 11:26:07;;;;;;;12.75;10.00;;;25.40;47.10;;;;;;5052435;28;20048;-53
2021/09/10 11:28:36;;;;;;;13.25;10.75;;;25.40;47.30;;;;;;5052499;28;20052;-54
2021/09/10 11:31:04;;;;;;;13.10;11.90;;;25.50;47.70;;;;;;5052270;28;20045;-54
2021/09/10 11:33:42;;;;;;;11.55;10.43;;;25.60;47.50;;;;;;5051940;28;20052;-54
2021/09/10 11:36:09;;;;;;;15.27;12.77;;;25.60;47.40;;;;;;5052498;28;20028;-54
2021/09/10 11:38:35;;;;;;;13.93;12.43;;;25.50;47.20;;;;;;5052092;28;20045;-54
2021/09/10 11:41:05;;;;;;;16.33;12.80;;;25.50;47.50;;;;;;5049038;28;20478;-51
2021/09/10 11:43:35;;;;;;;26.90;20.17;;;25.50;47.40;;;;;;5031650;28;20052;-54
2021/09/10 11:46:08;;;;;;;35.88;32.17;;;25.50;47.70;;;;;;5030533;28;20021;-50
2021/09/10 11:48:47;;;;;;;29.83;25.00;;;25.50;47.30;;;;;;5029392;28;20036;-50
2021/09/10 11:51:15;;;;;;;42.13;37.28;;;25.50;47.50;;;;;;5032022;28;20490;-50
2021/09/10 11:53:47;;;;;;;18.15;15.27;;;25.50;47.50;;;;;;5030516;28;20037;-49
2021/09/10 11:56:27;;;;;;;17.65;13.52;;;25.50;46.90;;;;;;5032350;28;20040;-51
2021/09/10 11:58:55;;;;;;;17.45;13.43;;;25.50;47.00;;;;;;5032412;28;20037;-54
2021/09/10 12:01:38;;;;;;;14.55;13.15;;;25.50;47.50;;;;;;5031790;28;20049;-50
2021/09/10 12:04:10;;;;;;;19.92;14.68;;;25.50;47.20;;;;;;5031103;28;20374;-52
2021/09/10 12:06:50;;;;;;;15.07;13.32;;;25.50;47.40;;;;;;5031145;28;20052;-50
2021/09/10 12:09:20;;;;;;;15.13;13.40;;;25.50;47.30;;;;;;5032765;28;20038;-57
2021/09/10 12:12:07;;;;;;;14.25;12.85;;;25.50;47.20;;;;;;5032559;28;20397;-54
2021/09/10 12:14:35;;;;;;;14.18;12.82;;;25.60;47.30;;;;;;5032213;28;20046;-50
2021/09/10 12:17:08;;;;;;;17.02;11.95;;;25.60;46.90;;;;;;5031934;28;20056;-54
2021/09/10 12:20:02;;;;;;;16.08;13.52;;;25.70;46.80;;;;;;5031850;28;20347;-52
2021/09/10 12:22:50;;;;;;;15.13;13.48;;;25.60;46.60;;;;;;5030876;28;20482;-53
2021/09/10 12:25:38;;;;;;;14.77;12.80;;;25.50;47.00;;;;;;5032413;28;20041;-53
2021/09/10 12:28:08;;;;;;;13.93;12.35;;;25.50;47.30;;;;;;5032009;28;20037;-53
2021/09/10 12:30:37;;;;;;;;;;;25.50;46.90;;;;;;5032809;28;20042;-51
2021/09/10 12:33:04;;;;;;;17.08;13.77;;;25.60;47.30;;;;;;5031561;28;19913;-54
2021/09/10 12:35:33;;;;;;;16.35;14.75;;;25.60;47.50;;;;;;5031783;28;20041;-49
2021/09/10 12:38:04;;;;;;;18.00;15.23;;;25.60;47.30;;;;;;5031748;28;20053;-54